createdAt,value
2023-03-12T00:00:52.324Z,101401.78
2023-03-12T00:03:19.497Z,101388.03
2023-03-12T00:05:46.629Z,101362.13
2023-03-12T00:08:14.315Z,101326.84
2023-03-12T00:10:43.261Z,101377.53
2023-03-12T00:13:13.241Z,101387.69
2023-03-12T00:15:40.365Z,101325.00
2023-03-12T00:18:07.662Z,101323.16
2023-03-12T00:20:34.981Z,101320.59
2023-03-12T00:23:08.041Z,101337.69
2023-03-12T00:25:36.196Z,101393.50
2023-03-12T00:28:03.308Z,101323.81
2023-03-12T00:30:31.296Z,101346.19
2023-03-12T00:32:58.325Z,101350.25
2023-03-12T00:35:26.995Z,101337.16
2023-03-12T00:37:54.267Z,101363.88
2023-03-12T00:40:21.525Z,101381.91
2023-03-12T00:42:48.584Z,101354.31
2023-03-12T00:45:15.830Z,101326.69
2023-03-12T00:47:42.804Z,101324.00
2023-03-12T00:50:10.223Z,101319.69
2023-03-12T00:52:37.397Z,101291.25
2023-03-12T00:55:05.832Z,101323.66
2023-03-12T00:57:32.901Z,101320.28
2023-03-12T01:00:00.210Z,101302.22
2023-03-12T01:02:27.291Z,101348.56
2023-03-12T01:04:54.421Z,101311.66
2023-03-12T01:07:21.467Z,101346.66
2023-03-12T01:09:51.255Z,101339.78
2023-03-12T01:12:18.252Z,101291.69
2023-03-12T01:14:45.128Z,101304.75
2023-03-12T01:17:12.455Z,101271.13
2023-03-12T01:19:39.692Z,101305.59
2023-03-12T01:22:07.010Z,101290.16
2023-03-12T01:24:33.986Z,101284.09
2023-03-12T01:27:01.006Z,101301.22
2023-03-12T01:29:28.594Z,101280.56
2023-03-12T01:31:55.670Z,101316.72
2023-03-12T01:34:22.965Z,101312.44
2023-03-12T01:36:50.345Z,101306.28
2023-03-12T01:39:17.718Z,101271.88
2023-03-12T01:41:45.138Z,101267.56
2023-03-12T01:44:15.080Z,101257.22
2023-03-12T01:46:43.987Z,101293.94
2023-03-12T01:49:35.648Z,101324.84
2023-03-12T01:52:07.778Z,101318.91
2023-03-12T01:54:50.024Z,101318.75
2023-03-12T01:57:21.453Z,101274.88
2023-03-12T02:00:00.149Z,101240.53
2023-03-12T02:02:31.752Z,101257.66
2023-03-12T02:05:23.721Z,101227.44
2023-03-12T02:07:54.256Z,101268.66
2023-03-12T02:10:23.876Z,101245.59
2023-03-12T02:12:52.148Z,101238.56
2023-03-12T02:15:19.697Z,101212.63
2023-03-12T02:17:47.074Z,101239.91
2023-03-12T02:20:35.442Z,101271.66
2023-03-12T02:23:19.275Z,101212.41
2023-03-12T02:25:50.411Z,101233.00
2023-03-12T02:28:22.524Z,101206.25
2023-03-12T02:30:56.567Z,101187.16
2023-03-12T02:33:23.855Z,101216.25
2023-03-12T02:35:52.975Z,101208.38
2023-03-12T02:38:39.726Z,101184.19
2023-03-12T02:41:22.145Z,101173.63
2023-03-12T02:44:10.154Z,101162.28
2023-03-12T02:46:49.702Z,101203.56
2023-03-12T02:49:19.336Z,101153.56
2023-03-12T02:51:47.686Z,101145.63
2023-03-12T02:54:17.607Z,101166.28
2023-03-12T02:56:45.538Z,101166.06
2023-03-12T02:59:13.948Z,101154.13
2023-03-12T03:01:41.394Z,101197.91
2023-03-12T03:04:10.521Z,101157.44
2023-03-12T03:06:41.832Z,101172.81
2023-03-12T03:09:09.703Z,101177.81
2023-03-12T03:11:36.986Z,101145.19
2023-03-12T03:14:07.116Z,101163.78
2023-03-12T03:16:34.675Z,101123.38
2023-03-12T03:19:01.834Z,101114.13
2023-03-12T03:21:29.554Z,101153.56
2023-03-12T03:23:56.781Z,101108.97
2023-03-12T03:26:24.844Z,101100.38
2023-03-12T03:28:52.334Z,101164.78
2023-03-12T03:31:19.574Z,101093.25
2023-03-12T03:33:52.011Z,101159.19
2023-03-12T03:36:19.643Z,101072.47
2023-03-12T03:38:49.787Z,101143.50
2023-03-12T03:41:19.167Z,101075.75
2023-03-12T03:43:47.706Z,101072.25
2023-03-12T03:46:16.903Z,101114.91
2023-03-12T03:48:43.946Z,101101.19
2023-03-12T03:51:12.246Z,101131.72
2023-03-12T03:53:39.620Z,101094.84
2023-03-12T03:56:09.032Z,101089.72
2023-03-12T03:58:36.913Z,101058.06
2023-03-12T04:01:04.471Z,101074.19
2023-03-12T04:03:31.703Z,101077.59
2023-03-12T04:06:06.058Z,101048.38
2023-03-12T04:08:36.091Z,101116.19
2023-03-12T04:11:17.909Z,101112.66
2023-03-12T04:13:45.968Z,101105.00
2023-03-12T04:16:14.641Z,101086.75
2023-03-12T04:18:41.731Z,101045.72
2023-03-12T04:21:11.226Z,101097.69
2023-03-12T04:23:38.708Z,101115.72
2023-03-12T04:26:06.858Z,101057.91
2023-03-12T04:28:35.171Z,101038.75
2023-03-12T04:31:05.810Z,101006.69
2023-03-12T04:33:38.174Z,101088.13
2023-03-12T04:36:06.386Z,101013.50
2023-03-12T04:38:35.618Z,101004.84
2023-03-12T04:41:12.667Z,101091.63
2023-03-12T04:43:40.077Z,101012.09
2023-03-12T04:46:08.228Z,101024.59
2023-03-12T04:48:36.121Z,101019.25
2023-03-12T04:51:04.594Z,100997.84
2023-03-12T04:53:31.778Z,101054.09
2023-03-12T04:55:59.636Z,101052.44
2023-03-12T04:58:28.468Z,101015.41
2023-03-12T05:00:57.020Z,100971.91
2023-03-12T05:03:24.327Z,100969.38
2023-03-12T05:05:53.408Z,101014.09
2023-03-12T05:08:20.720Z,101030.06
2023-03-12T05:10:47.572Z,100953.81
2023-03-12T05:13:21.075Z,100941.44
2023-03-12T05:15:51.254Z,100989.34
2023-03-12T05:18:21.027Z,101018.56
2023-03-12T05:20:57.469Z,101001.59
2023-03-12T05:23:24.778Z,100952.78
2023-03-12T05:25:51.904Z,100943.19
2023-03-12T05:28:20.691Z,100987.66
2023-03-12T05:30:48.176Z,100939.91
2023-03-12T05:33:15.103Z,100941.38
2023-03-12T05:35:42.088Z,100944.72
2023-03-12T05:38:09.531Z,100916.38
2023-03-12T05:40:36.669Z,100974.38
2023-03-12T05:43:04.073Z,100930.72
2023-03-12T05:45:33.091Z,100961.44
2023-03-12T05:48:03.028Z,100910.00
2023-03-12T05:50:31.046Z,100907.38
2023-03-12T05:52:57.962Z,100940.75
2023-03-12T05:55:25.849Z,100909.72
2023-03-12T05:57:52.808Z,100912.09
2023-03-12T06:00:22.460Z,100901.22
2023-03-12T06:02:49.462Z,100905.53
2023-03-12T06:05:17.297Z,100979.06
2023-03-12T06:07:44.298Z,100950.84
2023-03-12T06:10:12.098Z,100975.53
2023-03-12T06:12:39.209Z,100943.13
2023-03-12T06:15:08.212Z,100942.28
2023-03-12T06:17:35.397Z,100915.75
2023-03-12T06:20:02.504Z,100981.59
2023-03-12T06:22:30.270Z,100952.34
2023-03-12T06:24:57.529Z,100921.50
2023-03-12T06:27:24.596Z,100923.16
2023-03-12T06:29:52.178Z,100990.25
2023-03-12T06:32:19.462Z,100967.81
2023-03-12T06:34:46.825Z,100894.75
2023-03-12T06:37:13.905Z,100928.19
2023-03-12T06:39:41.464Z,100929.00
2023-03-12T06:42:08.413Z,100953.00
2023-03-12T06:44:35.423Z,100905.00
2023-03-12T06:47:02.709Z,100946.31
2023-03-12T06:49:33.599Z,100885.56
2023-03-12T06:52:07.660Z,100920.75
2023-03-12T06:57:18.109Z,100920.59
2023-03-12T06:59:44.933Z,100878.72
2023-03-12T07:02:12.392Z,100865.75
2023-03-12T07:04:39.304Z,100915.88
2023-03-12T07:07:06.085Z,100907.28
2023-03-12T07:09:33.546Z,100899.13
2023-03-12T07:12:00.500Z,100880.25
2023-03-12T07:14:27.372Z,100875.38
2023-03-12T07:16:54.484Z,100863.31
2023-03-12T07:19:21.475Z,100854.09
2023-03-12T07:21:48.513Z,100910.50
2023-03-12T07:24:15.415Z,100911.84
2023-03-12T07:26:44.764Z,100921.44
2023-03-12T07:29:11.770Z,100857.28
2023-03-12T07:31:39.259Z,100878.66
2023-03-12T07:34:06.844Z,100896.63
2023-03-12T07:36:33.973Z,100922.41
2023-03-12T07:39:02.421Z,100941.81
2023-03-12T07:41:29.449Z,100910.13
2023-03-12T07:43:57.282Z,100919.69
2023-03-12T07:46:24.582Z,100952.00
2023-03-12T07:48:51.739Z,100928.03
2023-03-12T07:51:18.890Z,100915.97
2023-03-12T07:53:46.172Z,100948.16
2023-03-12T07:56:13.355Z,100894.13
2023-03-12T07:58:40.587Z,100886.28
2023-03-12T08:01:08.960Z,100919.50
2023-03-12T08:03:36.327Z,100912.41
2023-03-12T08:06:06.242Z,100868.53
2023-03-12T08:08:33.439Z,100929.13
2023-03-12T08:11:00.902Z,100868.22
2023-03-12T08:13:28.423Z,100865.75
2023-03-12T08:15:55.817Z,100864.84
2023-03-12T08:18:25.225Z,100862.81
2023-03-12T08:20:54.411Z,100879.88
2023-03-12T08:23:22.432Z,100855.66
2023-03-12T08:25:51.443Z,100874.56
2023-03-12T08:28:19.190Z,100897.47
2023-03-12T08:30:51.553Z,100884.41
2023-03-12T08:33:18.846Z,100886.94
2023-03-12T08:35:46.248Z,100903.84
2023-03-12T08:38:13.769Z,100851.31
2023-03-12T08:40:40.738Z,100852.72
2023-03-12T08:43:08.086Z,100878.16
2023-03-12T08:45:36.498Z,100900.91
2023-03-12T08:48:04.522Z,100898.59
2023-03-12T08:50:32.658Z,100835.34
2023-03-12T08:53:00.352Z,100887.19
2023-03-12T08:55:30.787Z,100888.72
2023-03-12T08:58:00.895Z,100867.06
2023-03-12T09:00:27.902Z,100891.22
2023-03-12T09:02:58.866Z,100864.31
2023-03-12T09:05:26.459Z,100913.66
2023-03-12T09:07:53.284Z,100858.09
2023-03-12T09:10:20.495Z,100870.66
2023-03-12T09:12:47.606Z,100858.59
2023-03-12T09:15:15.818Z,100858.16
2023-03-12T09:17:42.894Z,100877.22
2023-03-12T09:20:16.770Z,100864.56
2023-03-12T09:22:44.930Z,100827.31
2023-03-12T09:25:12.409Z,100865.94
2023-03-12T09:27:45.136Z,100845.72
2023-03-12T09:30:16.099Z,100881.97
2023-03-12T09:32:45.559Z,100911.56
2023-03-12T09:35:14.967Z,100854.06
2023-03-12T09:37:43.131Z,100850.59
2023-03-12T09:40:18.280Z,100890.44
2023-03-12T09:42:58.483Z,100869.81
2023-03-12T09:45:28.672Z,100880.50
2023-03-12T09:47:58.951Z,100857.19
2023-03-12T09:50:43.746Z,100894.38
2023-03-12T09:53:38.660Z,100885.09
2023-03-12T09:56:10.256Z,100884.66
2023-03-12T09:58:38.588Z,100856.88
2023-03-12T10:01:31.896Z,100912.75
2023-03-12T10:04:26.813Z,100908.75
2023-03-12T10:07:18.603Z,100906.31
2023-03-12T10:10:02.193Z,100914.91
2023-03-12T10:12:56.200Z,100854.72
2023-03-12T10:15:45.999Z,100843.81
2023-03-12T10:18:22.567Z,100899.31
2023-03-12T10:20:55.790Z,100890.78
2023-03-12T10:23:39.936Z,100894.97
2023-03-12T10:26:15.718Z,100894.66
2023-03-12T10:28:52.876Z,100887.31
2023-03-12T10:31:32.812Z,100893.66
2023-03-12T10:34:02.022Z,100879.25
2023-03-12T10:36:41.350Z,100901.03
2023-03-12T10:39:17.906Z,100913.72
2023-03-12T10:41:48.200Z,100863.59
2023-03-12T10:44:25.901Z,100894.50
2023-03-12T10:46:57.024Z,100872.56
2023-03-12T10:49:24.101Z,100923.31
2023-03-12T10:51:55.873Z,100915.75
2023-03-12T10:54:31.826Z,100920.03
2023-03-12T10:56:59.262Z,100899.41
2023-03-12T10:59:29.903Z,100900.78
2023-03-12T11:01:58.713Z,100913.31
2023-03-12T11:04:32.709Z,100916.03
2023-03-12T11:07:33.658Z,100923.88
2023-03-12T11:10:18.192Z,100891.25
2023-03-12T11:13:01.105Z,100926.47
2023-03-12T11:15:51.333Z,100875.00
2023-03-12T11:18:35.052Z,100934.41
2023-03-12T11:21:10.977Z,100939.94
2023-03-12T11:23:48.477Z,100884.03
2023-03-12T11:26:23.415Z,100884.03
2023-03-12T11:29:12.306Z,100895.16
2023-03-12T11:31:46.589Z,100890.88
2023-03-12T11:34:31.457Z,100890.47
2023-03-12T11:37:12.918Z,100890.91
2023-03-12T11:40:15.092Z,100924.09
2023-03-12T11:42:52.060Z,100933.47
2023-03-12T11:45:51.789Z,100912.19
2023-03-12T11:48:41.095Z,100923.72
2023-03-12T11:51:28.171Z,100916.88
2023-03-12T11:54:01.061Z,100909.34
2023-03-12T11:56:39.332Z,100918.84
2023-03-12T11:59:39.658Z,100904.22
2023-03-12T12:02:45.322Z,100912.97
2023-03-12T12:05:39.785Z,100881.91
2023-03-12T12:08:32.904Z,100896.63
2023-03-12T12:11:17.983Z,100895.13
2023-03-12T12:14:04.393Z,100855.72
2023-03-12T12:17:13.035Z,100850.44
2023-03-12T12:20:11.398Z,100888.16
2023-03-12T12:23:17.787Z,100879.34
2023-03-12T12:26:05.778Z,100870.56
2023-03-12T12:29:20.781Z,100871.41
2023-03-12T12:31:57.605Z,100823.91
2023-03-12T12:34:32.373Z,100864.31
2023-03-12T12:37:12.465Z,100867.06
2023-03-12T12:39:53.309Z,100838.16
2023-03-12T12:42:26.705Z,100853.06
2023-03-12T12:44:57.762Z,100840.59
2023-03-12T12:47:43.636Z,100834.16
2023-03-12T12:50:21.974Z,100837.44
2023-03-12T12:52:57.089Z,100839.13
2023-03-12T12:55:35.093Z,100861.31
2023-03-12T12:58:17.153Z,100842.81
2023-03-12T13:00:53.450Z,100857.28
2023-03-12T13:03:26.301Z,100821.03
2023-03-12T13:05:53.294Z,100854.72
2023-03-12T13:08:44.638Z,100861.41
2023-03-12T13:11:19.499Z,100856.69
2023-03-12T13:14:02.663Z,100858.09
2023-03-12T13:16:36.315Z,100819.19
2023-03-12T13:19:15.667Z,100863.63
2023-03-12T13:21:51.634Z,100829.38
2023-03-12T13:24:37.517Z,100855.16
2023-03-12T13:27:29.394Z,100857.16
2023-03-12T13:29:57.753Z,100825.56
2023-03-12T13:32:37.222Z,100874.72
2023-03-12T13:35:24.554Z,100868.28
2023-03-12T13:37:53.989Z,100871.31
2023-03-12T13:40:30.221Z,100860.06
2023-03-12T13:43:10.084Z,100831.91
2023-03-12T13:46:23.588Z,100879.88
2023-03-12T13:48:51.408Z,100836.81
2023-03-12T13:51:25.096Z,100855.56
2023-03-12T13:54:18.735Z,100855.72
2023-03-12T13:57:05.910Z,100829.09
2023-03-12T13:59:34.056Z,100878.31
2023-03-12T14:02:07.481Z,100841.94
2023-03-12T14:04:42.100Z,100846.47
2023-03-12T14:07:30.723Z,100904.16
2023-03-12T14:10:11.563Z,100914.28
2023-03-12T14:12:49.790Z,100866.06
2023-03-12T14:15:29.797Z,100897.50
2023-03-12T14:18:03.684Z,100906.63
2023-03-12T14:20:32.001Z,100912.84
2023-03-12T14:23:04.904Z,100867.00
2023-03-12T14:25:48.347Z,100867.97
2023-03-12T14:28:22.632Z,100889.44
2023-03-12T14:30:50.707Z,100947.13
2023-03-12T14:33:27.846Z,100915.72
2023-03-12T14:36:04.163Z,100867.34
2023-03-12T14:38:38.030Z,100907.31
2023-03-12T14:41:29.812Z,100871.63
2023-03-12T14:44:06.820Z,100879.84
2023-03-12T14:46:34.575Z,100920.06
2023-03-12T14:49:03.103Z,100877.66
2023-03-12T14:51:36.357Z,100893.06
2023-03-12T14:54:03.740Z,100910.56
2023-03-12T14:56:36.255Z,100910.47
2023-03-12T14:59:31.543Z,100904.03
2023-03-12T15:02:13.847Z,100902.06
2023-03-12T15:04:42.233Z,100890.06
2023-03-12T15:07:12.797Z,100917.72
2023-03-12T15:09:44.910Z,100857.03
2023-03-12T15:12:28.219Z,100855.84
2023-03-12T15:15:04.486Z,100871.50
2023-03-12T15:17:34.940Z,100860.06
2023-03-12T15:20:10.228Z,100884.81
2023-03-12T15:22:38.219Z,100856.75
2023-03-12T15:25:27.848Z,100846.94
2023-03-12T15:28:15.053Z,100854.75
2023-03-12T15:30:43.631Z,100855.72
2023-03-12T15:33:14.862Z,100833.72
2023-03-12T15:35:57.760Z,100845.59
2023-03-12T15:38:27.536Z,100870.31
2023-03-12T15:41:00.583Z,100858.13
2023-03-12T15:43:28.559Z,100847.94
2023-03-12T15:46:06.540Z,100833.59
2023-03-12T15:48:50.934Z,100843.03
2023-03-12T15:51:37.433Z,100852.56
2023-03-12T15:54:14.743Z,100881.75
2023-03-12T15:56:42.762Z,100868.72
2023-03-12T15:59:15.943Z,100885.81
2023-03-12T16:01:51.784Z,100879.97
2023-03-12T16:04:21.552Z,100832.38
2023-03-12T16:06:53.899Z,100818.38
2023-03-12T16:09:29.732Z,100839.53
2023-03-12T16:11:57.966Z,100813.00
2023-03-12T16:14:31.329Z,100827.63
2023-03-12T16:16:58.771Z,100863.81
2023-03-12T16:19:29.414Z,100839.16
2023-03-12T16:22:00.161Z,100817.81
2023-03-12T16:24:28.447Z,100812.53
2023-03-12T16:26:59.254Z,100808.94
2023-03-12T16:29:36.028Z,100852.50
2023-03-12T16:32:14.254Z,100827.66
2023-03-12T16:34:43.523Z,100824.81
2023-03-12T16:37:13.066Z,100802.53
2023-03-12T16:39:40.447Z,100806.50
2023-03-12T16:42:15.938Z,100793.84
2023-03-12T16:44:46.355Z,100828.88
2023-03-12T16:47:14.668Z,100788.44
2023-03-12T16:49:44.120Z,100788.44
2023-03-12T16:52:23.075Z,100845.59
2023-03-12T16:54:52.361Z,100810.94
2023-03-12T16:57:35.170Z,100786.47
2023-03-12T17:00:15.907Z,100790.53
2023-03-12T17:02:42.924Z,100808.13
2023-03-12T17:05:11.219Z,100811.25
2023-03-12T17:07:38.327Z,100859.03
2023-03-12T17:10:08.898Z,100861.69
2023-03-12T17:12:39.393Z,100817.56
2023-03-12T17:15:26.213Z,100818.81
2023-03-12T17:17:55.625Z,100824.66
2023-03-12T17:20:24.876Z,100805.78
2023-03-12T17:22:53.634Z,100816.06
2023-03-12T17:25:26.210Z,100817.00
2023-03-12T17:27:56.690Z,100850.34
2023-03-12T17:30:25.254Z,100839.22
2023-03-12T17:32:54.640Z,100807.25
2023-03-12T17:35:21.977Z,100815.47
2023-03-12T17:37:49.420Z,100831.47
2023-03-12T17:40:17.594Z,100863.28
2023-03-12T17:42:45.728Z,100870.56
2023-03-12T17:45:13.180Z,100824.22
2023-03-12T17:47:41.390Z,100831.13
2023-03-12T17:50:10.095Z,100825.06
2023-03-12T17:52:37.237Z,100851.25
2023-03-12T17:55:05.248Z,100873.84
2023-03-12T17:57:32.740Z,100822.13
2023-03-12T18:00:00.474Z,100856.91
2023-03-12T18:02:27.639Z,100837.72
2023-03-12T18:04:55.755Z,100824.97
2023-03-12T18:07:23.329Z,100821.06
2023-03-12T18:09:53.115Z,100829.47
2023-03-12T18:12:20.376Z,100834.50
2023-03-12T18:14:48.904Z,100815.22
2023-03-12T18:17:16.396Z,100834.09
2023-03-12T18:19:43.625Z,100881.06
2023-03-12T18:22:14.678Z,100838.25
2023-03-12T18:24:42.691Z,100846.41
2023-03-12T18:27:09.813Z,100841.28
2023-03-12T18:29:37.997Z,100850.25
2023-03-12T18:32:05.272Z,100837.28
2023-03-12T18:34:32.387Z,100849.78
2023-03-12T18:36:59.636Z,100865.56
2023-03-12T18:39:27.567Z,100838.34
2023-03-12T18:41:57.689Z,100807.16
2023-03-12T18:44:24.862Z,100817.28
2023-03-12T18:46:52.284Z,100817.38
2023-03-12T18:49:21.073Z,100817.38
2023-03-12T18:51:53.621Z,100840.50
2023-03-12T18:54:24.395Z,100874.34
2023-03-12T18:56:51.914Z,100805.19
2023-03-12T18:59:19.226Z,100833.66
2023-03-12T19:01:46.685Z,100848.59
2023-03-12T19:04:19.313Z,100804.94
2023-03-12T19:06:51.060Z,100815.25
2023-03-12T19:09:19.214Z,100842.28
2023-03-12T19:11:49.832Z,100807.88
2023-03-12T19:14:17.737Z,100815.72
2023-03-12T19:16:44.831Z,100805.63
2023-03-12T19:19:14.138Z,100778.31
2023-03-12T19:21:41.227Z,100827.06
2023-03-12T19:24:10.646Z,100800.72
2023-03-12T19:26:38.238Z,100818.09
2023-03-12T19:29:06.024Z,100768.03
2023-03-12T19:31:33.548Z,100787.13
2023-03-12T19:34:01.377Z,100784.38
2023-03-12T19:36:28.381Z,100816.88
2023-03-12T19:38:55.349Z,100823.47
2023-03-12T19:41:22.754Z,100794.41
2023-03-12T19:43:49.923Z,100806.19
2023-03-12T19:46:22.341Z,100795.72
2023-03-12T19:48:50.409Z,100777.03
2023-03-12T19:51:17.423Z,100794.59
2023-03-12T19:53:44.882Z,100775.34
2023-03-12T19:56:16.509Z,100768.72
2023-03-12T19:58:49.873Z,100740.78
2023-03-12T20:01:18.431Z,100766.06
2023-03-12T20:03:47.131Z,100761.56
2023-03-12T20:06:14.268Z,100721.25
2023-03-12T20:08:42.533Z,100776.38
2023-03-12T20:11:11.638Z,100752.00
2023-03-12T20:13:39.533Z,100720.38
2023-03-12T20:16:07.894Z,100733.50
2023-03-12T20:18:35.447Z,100769.97
2023-03-12T20:21:02.636Z,100741.91
2023-03-12T20:23:31.406Z,100745.50
2023-03-12T20:25:59.840Z,100725.88
2023-03-12T20:28:27.805Z,100771.75
2023-03-12T20:30:58.044Z,100728.69
2023-03-12T20:33:26.397Z,100741.81
2023-03-12T20:35:53.865Z,100703.41
2023-03-12T20:38:21.067Z,100723.69
2023-03-12T20:40:48.248Z,100738.31
2023-03-12T20:43:15.637Z,100714.34
2023-03-12T20:45:47.043Z,100686.22
2023-03-12T20:48:15.880Z,100673.88
2023-03-12T20:50:42.968Z,100696.31
2023-03-12T20:53:10.228Z,100675.09
2023-03-12T20:55:41.273Z,100671.03
2023-03-12T20:58:08.154Z,100714.16
2023-03-12T21:00:35.211Z,100707.16
2023-03-12T21:03:05.458Z,100714.72
2023-03-12T21:05:33.312Z,100706.78
2023-03-12T21:08:01.205Z,100710.19
2023-03-12T21:10:28.435Z,100692.06
2023-03-12T21:12:57.531Z,100701.41
2023-03-12T21:15:24.113Z,100693.56
2023-03-12T21:17:51.077Z,100681.38
2023-03-12T21:20:18.803Z,100672.59
2023-03-12T21:22:46.997Z,100680.53
2023-03-12T21:25:13.730Z,100672.59
2023-03-12T21:27:50.379Z,100674.13
2023-03-12T21:30:18.741Z,100663.53
2023-03-12T21:32:45.581Z,100662.34
2023-03-12T21:35:12.537Z,100660.53
2023-03-12T21:37:39.625Z,100659.59
2023-03-12T21:40:07.865Z,100648.16
2023-03-12T21:42:34.436Z,100647.97
2023-03-12T21:45:01.238Z,100639.19
2023-03-12T21:47:28.040Z,100621.72
2023-03-12T21:49:54.879Z,100628.22
2023-03-12T21:52:21.633Z,100622.94
2023-03-12T21:54:48.268Z,100622.00
2023-03-12T21:57:14.968Z,100608.88
2023-03-12T21:59:41.532Z,100609.63
2023-03-12T22:02:11.832Z,100602.63
2023-03-12T22:04:38.440Z,100607.06
2023-03-12T22:07:05.986Z,100585.28
2023-03-12T22:09:32.633Z,100586.41
2023-03-12T22:11:59.496Z,100593.41
2023-03-12T22:14:26.438Z,100586.50
2023-03-12T22:16:53.226Z,100581.88
2023-03-12T22:19:23.272Z,100585.19
2023-03-12T22:21:50.259Z,100574.59
2023-03-12T22:24:17.513Z,100580.38
2023-03-12T22:26:44.378Z,100564.31
2023-03-12T22:29:11.208Z,100554.03
2023-03-12T22:31:38.038Z,100555.09
2023-03-12T22:34:04.891Z,100549.97
2023-03-12T22:36:31.569Z,100551.75
2023-03-12T22:38:59.616Z,100549.50
2023-03-12T22:41:29.993Z,100540.63
2023-03-12T22:44:06.287Z,100541.78
2023-03-12T22:46:33.887Z,100526.66
2023-03-12T22:49:02.564Z,100534.41
2023-03-12T22:51:31.626Z,100526.38
2023-03-12T22:53:58.525Z,100515.75
2023-03-12T22:56:27.234Z,100514.41
2023-03-12T22:58:55.739Z,100512.06
2023-03-12T23:01:23.313Z,100504.44
2023-03-12T23:03:50.911Z,100501.13
2023-03-12T23:06:23.815Z,100502.09
2023-03-12T23:08:51.543Z,100495.31
2023-03-12T23:11:19.729Z,100496.06
2023-03-12T23:13:46.755Z,100477.94
2023-03-12T23:16:19.733Z,100474.38
2023-03-12T23:18:46.910Z,100455.53
2023-03-12T23:21:17.529Z,100454.28
2023-03-12T23:23:44.968Z,100441.38
2023-03-12T23:26:24.616Z,100439.88
2023-03-12T23:28:53.546Z,100428.16
2023-03-12T23:31:21.134Z,100421.38
2023-03-12T23:33:47.911Z,100413.44
2023-03-12T23:36:20.799Z,100395.69
2023-03-12T23:38:48.876Z,100393.81
2023-03-12T23:41:17.093Z,100393.81
2023-03-12T23:43:44.227Z,100389.56
2023-03-12T23:46:12.267Z,100368.00
2023-03-12T23:48:39.961Z,100365.69
2023-03-12T23:51:11.066Z,100358.50
2023-03-12T23:53:39.886Z,100345.31
2023-03-12T23:56:10.515Z,100334.09
2023-03-12T23:58:37.149Z,100323.41
